sensor_id;sensor_type;location;lat;lon;timestamp;P1;durP1;ratioP1;P2;durP2;ratioP2
53285;SDS011;39171;45.550;12.074;2022-12-18T00:03:34;5.75;;;4.82;;
53285;SDS011;39171;45.550;12.074;2022-12-18T00:09:36;5.00;;;4.45;;
53285;SDS011;39171;45.550;12.074;2022-12-18T00:15:38;4.38;;;3.47;;
53285;SDS011;39171;45.550;12.074;2022-12-18T00:21:40;5.28;;;4.00;;
53285;SDS011;39171;45.550;12.074;2022-12-18T00:27:43;4.93;;;3.80;;
53285;SDS011;39171;45.550;12.074;2022-12-18T00:33:44;4.50;;;3.67;;
53285;SDS011;39171;45.550;12.074;2022-12-18T00:39:47;4.90;;;4.10;;
53285;SDS011;39171;45.550;12.074;2022-12-18T00:45:49;4.75;;;4.15;;
53285;SDS011;39171;45.550;12.074;2022-12-18T00:51:50;5.18;;;4.22;;
53285;SDS011;39171;45.550;12.074;2022-12-18T00:57:52;4.72;;;4.00;;
53285;SDS011;39171;45.550;12.074;2022-12-18T01:03:53;5.43;;;4.20;;
53285;SDS011;39171;45.550;12.074;2022-12-18T01:09:55;5.43;;;3.88;;
53285;SDS011;39171;45.550;12.074;2022-12-18T01:15:56;4.95;;;4.10;;
53285;SDS011;39171;45.550;12.074;2022-12-18T01:21:57;4.57;;;3.38;;
53285;SDS011;39171;45.550;12.074;2022-12-18T01:27:59;5.43;;;4.40;;
53285;SDS011;39171;45.550;12.074;2022-12-18T01:34:00;5.20;;;3.75;;
53285;SDS011;39171;45.550;12.074;2022-12-18T01:40:02;5.68;;;3.90;;
53285;SDS011;39171;45.550;12.074;2022-12-18T01:46:04;4.88;;;3.78;;
53285;SDS011;39171;45.550;12.074;2022-12-18T01:52:06;5.35;;;3.70;;
53285;SDS011;39171;45.550;12.074;2022-12-18T01:58:07;4.25;;;3.15;;
53285;SDS011;39171;45.550;12.074;2022-12-18T02:04:42;4.72;;;4.00;;
53285;SDS011;39171;45.550;12.074;2022-12-18T02:10:45;4.32;;;3.47;;
53285;SDS011;39171;45.550;12.074;2022-12-18T02:29:13;4.35;;;3.28;;
53285;SDS011;39171;45.550;12.074;2022-12-18T02:35:26;3.70;;;2.92;;
53285;SDS011;39171;45.550;12.074;2022-12-18T02:41:33;4.50;;;3.70;;
53285;SDS011;39171;45.550;12.074;2022-12-18T02:47:40;4.35;;;3.42;;
53285;SDS011;39171;45.550;12.074;2022-12-18T02:53:49;4.00;;;3.15;;
53285;SDS011;39171;45.550;12.074;2022-12-18T03:00:06;4.20;;;3.28;;
53285;SDS011;39171;45.550;12.074;2022-12-18T03:06:14;4.65;;;3.25;;
53285;SDS011;39171;45.550;12.074;2022-12-18T03:12:29;4.68;;;3.45;;
53285;SDS011;39171;45.550;12.074;2022-12-18T03:18:37;4.40;;;3.67;;
53285;SDS011;39171;45.550;12.074;2022-12-18T03:24:48;4.20;;;3.38;;
53285;SDS011;39171;45.550;12.074;2022-12-18T03:30:51;3.97;;;3.15;;
53285;SDS011;39171;45.550;12.074;2022-12-18T03:36:58;4.63;;;3.30;;
53285;SDS011;39171;45.550;12.074;2022-12-18T03:43:03;4.30;;;3.33;;
53285;SDS011;39171;45.550;12.074;2022-12-18T03:49:16;5.07;;;4.07;;
53285;SDS011;39171;45.550;12.074;2022-12-18T03:55:20;4.30;;;3.22;;
53285;SDS011;39171;45.550;12.074;2022-12-18T04:01:32;4.37;;;3.30;;
53285;SDS011;39171;45.550;12.074;2022-12-18T04:07:36;4.70;;;3.47;;
53285;SDS011;39171;45.550;12.074;2022-12-18T04:13:41;4.43;;;3.53;;
53285;SDS011;39171;45.550;12.074;2022-12-18T04:19:50;5.30;;;3.60;;
53285;SDS011;39171;45.550;12.074;2022-12-18T04:25:52;4.72;;;3.47;;
53285;SDS011;39171;45.550;12.074;2022-12-18T04:32:07;4.10;;;3.33;;
53285;SDS011;39171;45.550;12.074;2022-12-18T04:38:15;4.80;;;3.70;;
53285;SDS011;39171;45.550;12.074;2022-12-18T04:44:18;5.25;;;3.85;;
53285;SDS011;39171;45.550;12.074;2022-12-18T04:50:20;5.10;;;3.55;;
53285;SDS011;39171;45.550;12.074;2022-12-18T04:56:21;4.78;;;3.70;;
53285;SDS011;39171;45.550;12.074;2022-12-18T05:02:23;5.28;;;4.00;;
53285;SDS011;39171;45.550;12.074;2022-12-18T05:08:24;4.68;;;4.03;;
53285;SDS011;39171;45.550;12.074;2022-12-18T05:14:26;4.57;;;3.65;;
53285;SDS011;39171;45.550;12.074;2022-12-18T05:20:29;5.30;;;4.00;;
53285;SDS011;39171;45.550;12.074;2022-12-18T05:26:31;5.07;;;4.05;;
53285;SDS011;39171;45.550;12.074;2022-12-18T05:32:32;6.05;;;4.55;;
53285;SDS011;39171;45.550;12.074;2022-12-18T05:38:36;4.43;;;3.72;;
53285;SDS011;39171;45.550;12.074;2022-12-18T05:44:39;5.82;;;4.43;;
53285;SDS011;39171;45.550;12.074;2022-12-18T05:50:41;4.90;;;4.25;;
53285;SDS011;39171;45.550;12.074;2022-12-18T05:56:46;6.68;;;4.75;;
53285;SDS011;39171;45.550;12.074;2022-12-18T06:02:47;6.00;;;4.63;;
53285;SDS011;39171;45.550;12.074;2022-12-18T06:08:49;5.07;;;4.32;;
53285;SDS011;39171;45.550;12.074;2022-12-18T06:14:52;5.93;;;4.70;;
53285;SDS011;39171;45.550;12.074;2022-12-18T06:20:55;6.25;;;4.93;;
53285;SDS011;39171;45.550;12.074;2022-12-18T06:26:57;6.07;;;4.55;;
53285;SDS011;39171;45.550;12.074;2022-12-18T06:32:58;6.53;;;5.00;;
53285;SDS011;39171;45.550;12.074;2022-12-18T06:38:59;5.05;;;4.22;;
53285;SDS011;39171;45.550;12.074;2022-12-18T06:45:01;5.75;;;4.93;;
53285;SDS011;39171;45.550;12.074;2022-12-18T06:51:02;5.80;;;4.82;;
53285;SDS011;39171;45.550;12.074;2022-12-18T06:57:03;5.53;;;4.43;;
53285;SDS011;39171;45.550;12.074;2022-12-18T07:03:05;6.32;;;5.25;;
53285;SDS011;39171;45.550;12.074;2022-12-18T07:09:06;7.03;;;5.30;;
53285;SDS011;39171;45.550;12.074;2022-12-18T07:15:08;5.63;;;4.75;;
53285;SDS011;39171;45.550;12.074;2022-12-18T07:21:11;5.97;;;4.93;;
53285;SDS011;39171;45.550;12.074;2022-12-18T07:27:15;6.50;;;5.22;;
53285;SDS011;39171;45.550;12.074;2022-12-18T07:33:17;6.18;;;5.13;;
53285;SDS011;39171;45.550;12.074;2022-12-18T07:39:18;6.50;;;5.35;;
53285;SDS011;39171;45.550;12.074;2022-12-18T07:45:19;7.35;;;5.65;;
53285;SDS011;39171;45.550;12.074;2022-12-18T07:51:21;7.43;;;5.88;;
53285;SDS011;39171;45.550;12.074;2022-12-18T07:57:22;7.20;;;5.47;;
53285;SDS011;39171;45.550;12.074;2022-12-18T08:03:23;7.25;;;5.70;;
53285;SDS011;39171;45.550;12.074;2022-12-18T08:09:25;8.10;;;5.95;;
53285;SDS011;39171;45.550;12.074;2022-12-18T08:15:26;6.85;;;5.30;;
53285;SDS011;39171;45.550;12.074;2022-12-18T08:21:28;6.45;;;5.65;;
53285;SDS011;39171;45.550;12.074;2022-12-18T08:27:30;6.78;;;5.25;;
53285;SDS011;39171;45.550;12.074;2022-12-18T08:33:32;6.38;;;5.25;;
53285;SDS011;39171;45.550;12.074;2022-12-18T08:39:34;6.15;;;4.85;;
53285;SDS011;39171;45.550;12.074;2022-12-18T08:45:35;7.75;;;6.07;;
53285;SDS011;39171;45.550;12.074;2022-12-18T08:51:37;6.53;;;5.20;;
53285;SDS011;39171;45.550;12.074;2022-12-18T08:57:39;6.82;;;4.75;;
53285;SDS011;39171;45.550;12.074;2022-12-18T09:03:41;7.03;;;5.28;;
53285;SDS011;39171;45.550;12.074;2022-12-18T09:09:42;6.88;;;5.43;;
53285;SDS011;39171;45.550;12.074;2022-12-18T09:15:53;6.25;;;5.18;;
53285;SDS011;39171;45.550;12.074;2022-12-18T09:21:55;7.22;;;5.43;;
53285;SDS011;39171;45.550;12.074;2022-12-18T09:27:57;6.63;;;5.40;;
53285;SDS011;39171;45.550;12.074;2022-12-18T09:33:58;6.90;;;5.45;;
53285;SDS011;39171;45.550;12.074;2022-12-18T09:39:59;7.50;;;5.78;;
53285;SDS011;39171;45.550;12.074;2022-12-18T09:46:03;7.15;;;5.05;;
53285;SDS011;39171;45.550;12.074;2022-12-18T09:52:26;6.35;;;5.00;;
53285;SDS011;39171;45.550;12.074;2022-12-18T10:04:36;7.15;;;5.45;;
53285;SDS011;39171;45.550;12.074;2022-12-18T10:10:40;6.28;;;5.15;;
53285;SDS011;39171;45.550;12.074;2022-12-18T10:17:14;7.13;;;5.45;;
53285;SDS011;39171;45.550;12.074;2022-12-18T10:29:44;6.72;;;5.13;;
53285;SDS011;39171;45.550;12.074;2022-12-18T10:35:47;6.35;;;4.90;;
53285;SDS011;39171;45.550;12.074;2022-12-18T10:41:52;6.22;;;5.00;;
53285;SDS011;39171;45.550;12.074;2022-12-18T10:48:21;5.95;;;4.68;;
53285;SDS011;39171;45.550;12.074;2022-12-18T10:54:23;7.32;;;5.10;;
53285;SDS011;39171;45.550;12.074;2022-12-18T11:00:27;6.65;;;5.43;;
53285;SDS011;39171;45.550;12.074;2022-12-18T11:06:30;6.43;;;5.20;;
53285;SDS011;39171;45.550;12.074;2022-12-18T11:12:31;6.88;;;5.38;;
53285;SDS011;39171;45.550;12.074;2022-12-18T11:18:33;6.75;;;5.82;;
53285;SDS011;39171;45.550;12.074;2022-12-18T11:24:36;5.65;;;4.82;;
53285;SDS011;39171;45.550;12.074;2022-12-18T11:30:43;6.32;;;4.63;;
53285;SDS011;39171;45.550;12.074;2022-12-18T11:36:45;5.75;;;4.25;;
53285;SDS011;39171;45.550;12.074;2022-12-18T11:43:02;6.15;;;4.72;;
53285;SDS011;39171;45.550;12.074;2022-12-18T11:49:17;5.63;;;4.55;;
53285;SDS011;39171;45.550;12.074;2022-12-18T12:02:15;6.47;;;4.93;;
53285;SDS011;39171;45.550;12.074;2022-12-18T12:08:55;6.00;;;4.88;;
53285;SDS011;39171;45.550;12.074;2022-12-18T12:27:48;4.20;;;3.80;;
53285;SDS011;39171;45.550;12.074;2022-12-18T12:34:25;4.63;;;3.78;;
53285;SDS011;39171;45.550;12.074;2022-12-18T12:40:35;3.92;;;3.22;;
53285;SDS011;39171;45.550;12.074;2022-12-18T12:46:45;4.13;;;3.30;;
53285;SDS011;39171;45.550;12.074;2022-12-18T12:52:52;5.40;;;3.90;;
53285;SDS011;39171;45.550;12.074;2022-12-18T12:59:05;4.55;;;3.72;;
53285;SDS011;39171;45.550;12.074;2022-12-18T13:05:38;5.15;;;3.55;;
53285;SDS011;39171;45.550;12.074;2022-12-18T13:11:50;4.22;;;3.55;;
53285;SDS011;39171;45.550;12.074;2022-12-18T13:18:12;4.65;;;4.10;;
53285;SDS011;39171;45.550;12.074;2022-12-18T13:24:26;5.20;;;3.92;;
53285;SDS011;39171;45.550;12.074;2022-12-18T13:36:33;5.25;;;4.18;;
53285;SDS011;39171;45.550;12.074;2022-12-18T13:42:37;5.88;;;4.22;;
53285;SDS011;39171;45.550;12.074;2022-12-18T13:49:20;5.05;;;3.85;;
53285;SDS011;39171;45.550;12.074;2022-12-18T13:55:22;5.82;;;4.53;;
53285;SDS011;39171;45.550;12.074;2022-12-18T14:01:24;5.20;;;4.35;;
53285;SDS011;39171;45.550;12.074;2022-12-18T14:07:26;5.10;;;4.30;;
53285;SDS011;39171;45.550;12.074;2022-12-18T14:13:35;6.45;;;4.80;;
53285;SDS011;39171;45.550;12.074;2022-12-18T14:19:46;6.63;;;5.18;;
53285;SDS011;39171;45.550;12.074;2022-12-18T14:32:03;5.25;;;4.40;;
53285;SDS011;39171;45.550;12.074;2022-12-18T14:38:10;5.80;;;4.57;;
53285;SDS011;39171;45.550;12.074;2022-12-18T14:44:14;5.63;;;4.20;;
53285;SDS011;39171;45.550;12.074;2022-12-18T14:50:16;5.13;;;4.25;;
53285;SDS011;39171;45.550;12.074;2022-12-18T14:56:18;5.78;;;4.45;;
53285;SDS011;39171;45.550;12.074;2022-12-18T15:02:26;5.40;;;4.45;;
53285;SDS011;39171;45.550;12.074;2022-12-18T15:08:31;5.45;;;4.57;;
53285;SDS011;39171;45.550;12.074;2022-12-18T15:14:40;6.68;;;5.07;;
53285;SDS011;39171;45.550;12.074;2022-12-18T15:20:52;6.28;;;4.75;;
53285;SDS011;39171;45.550;12.074;2022-12-18T15:26:55;8.73;;;6.63;;
53285;SDS011;39171;45.550;12.074;2022-12-18T15:39:23;10.77;;;8.45;;
53285;SDS011;39171;45.550;12.074;2022-12-18T15:45:28;13.02;;;9.93;;
53285;SDS011;39171;45.550;12.074;2022-12-18T15:51:34;14.20;;;11.02;;
53285;SDS011;39171;45.550;12.074;2022-12-18T15:57:37;13.70;;;10.48;;
53285;SDS011;39171;45.550;12.074;2022-12-18T16:03:38;12.98;;;10.27;;
53285;SDS011;39171;45.550;12.074;2022-12-18T16:09:42;12.88;;;10.57;;
53285;SDS011;39171;45.550;12.074;2022-12-18T16:15:43;13.52;;;10.88;;
53285;SDS011;39171;45.550;12.074;2022-12-18T16:21:45;15.25;;;11.23;;
53285;SDS011;39171;45.550;12.074;2022-12-18T16:27:49;11.07;;;9.40;;
53285;SDS011;39171;45.550;12.074;2022-12-18T16:34:09;12.60;;;10.55;;
53285;SDS011;39171;45.550;12.074;2022-12-18T16:40:16;14.88;;;10.75;;
53285;SDS011;39171;45.550;12.074;2022-12-18T16:46:18;12.13;;;10.27;;
53285;SDS011;39171;45.550;12.074;2022-12-18T16:52:20;13.75;;;10.70;;
53285;SDS011;39171;45.550;12.074;2022-12-18T16:58:21;14.23;;;10.93;;
53285;SDS011;39171;45.550;12.074;2022-12-18T17:04:23;14.10;;;11.52;;
53285;SDS011;39171;45.550;12.074;2022-12-18T17:10:24;13.48;;;10.95;;
53285;SDS011;39171;45.550;12.074;2022-12-18T17:16:26;17.17;;;13.63;;
53285;SDS011;39171;45.550;12.074;2022-12-18T17:22:28;17.35;;;14.45;;
53285;SDS011;39171;45.550;12.074;2022-12-18T17:28:29;19.10;;;14.77;;
53285;SDS011;39171;45.550;12.074;2022-12-18T17:34:33;20.13;;;16.05;;
53285;SDS011;39171;45.550;12.074;2022-12-18T17:40:36;19.77;;;16.20;;
53285;SDS011;39171;45.550;12.074;2022-12-18T17:46:37;20.42;;;16.20;;
53285;SDS011;39171;45.550;12.074;2022-12-18T17:52:39;20.35;;;16.27;;
53285;SDS011;39171;45.550;12.074;2022-12-18T17:58:40;21.00;;;16.85;;
53285;SDS011;39171;45.550;12.074;2022-12-18T18:04:42;20.90;;;16.75;;
53285;SDS011;39171;45.550;12.074;2022-12-18T18:10:44;20.65;;;16.75;;
53285;SDS011;39171;45.550;12.074;2022-12-18T18:16:49;23.23;;;19.05;;
53285;SDS011;39171;45.550;12.074;2022-12-18T18:22:51;23.23;;;18.25;;
53285;SDS011;39171;45.550;12.074;2022-12-18T18:28:53;25.08;;;19.55;;
53285;SDS011;39171;45.550;12.074;2022-12-18T18:34:54;22.60;;;18.30;;
53285;SDS011;39171;45.550;12.074;2022-12-18T18:40:59;22.40;;;18.52;;
53285;SDS011;39171;45.550;12.074;2022-12-18T18:47:06;22.30;;;17.95;;
53285;SDS011;39171;45.550;12.074;2022-12-18T18:53:13;21.45;;;17.40;;
53285;SDS011;39171;45.550;12.074;2022-12-18T18:59:15;23.60;;;18.77;;
53285;SDS011;39171;45.550;12.074;2022-12-18T19:05:22;23.90;;;18.95;;
53285;SDS011;39171;45.550;12.074;2022-12-18T19:11:24;21.42;;;18.02;;
53285;SDS011;39171;45.550;12.074;2022-12-18T19:23:45;22.70;;;18.92;;
53285;SDS011;39171;45.550;12.074;2022-12-18T19:29:47;23.70;;;20.08;;
53285;SDS011;39171;45.550;12.074;2022-12-18T19:35:50;25.42;;;20.92;;
53285;SDS011;39171;45.550;12.074;2022-12-18T19:41:52;28.50;;;21.88;;
53285;SDS011;39171;45.550;12.074;2022-12-18T19:47:56;27.38;;;23.30;;
53285;SDS011;39171;45.550;12.074;2022-12-18T19:53:58;30.02;;;24.25;;
53285;SDS011;39171;45.550;12.074;2022-12-18T20:00:00;32.03;;;25.77;;
53285;SDS011;39171;45.550;12.074;2022-12-18T20:06:35;31.38;;;25.95;;
53285;SDS011;39171;45.550;12.074;2022-12-18T20:12:33;37.25;;;29.33;;
53285;SDS011;39171;45.550;12.074;2022-12-18T20:18:35;34.22;;;29.50;;
53285;SDS011;39171;45.550;12.074;2022-12-18T20:24:36;38.72;;;31.70;;
53285;SDS011;39171;45.550;12.074;2022-12-18T20:30:38;40.67;;;33.58;;
53285;SDS011;39171;45.550;12.074;2022-12-18T20:36:39;38.55;;;33.25;;
53285;SDS011;39171;45.550;12.074;2022-12-18T20:42:40;40.97;;;34.13;;
53285;SDS011;39171;45.550;12.074;2022-12-18T20:48:47;44.35;;;36.40;;
53285;SDS011;39171;45.550;12.074;2022-12-18T20:54:51;41.17;;;33.95;;
53285;SDS011;39171;45.550;12.074;2022-12-18T21:01:06;42.65;;;35.45;;
53285;SDS011;39171;45.550;12.074;2022-12-18T21:07:10;43.80;;;35.38;;
53285;SDS011;39171;45.550;12.074;2022-12-18T21:13:11;40.78;;;33.67;;
53285;SDS011;39171;45.550;12.074;2022-12-18T21:19:14;39.88;;;32.38;;
53285;SDS011;39171;45.550;12.074;2022-12-18T21:25:27;38.47;;;31.65;;
53285;SDS011;39171;45.550;12.074;2022-12-18T21:31:32;38.30;;;29.67;;
53285;SDS011;39171;45.550;12.074;2022-12-18T21:37:36;33.50;;;27.67;;
53285;SDS011;39171;45.550;12.074;2022-12-18T21:43:37;31.20;;;26.20;;
53285;SDS011;39171;45.550;12.074;2022-12-18T21:49:57;30.85;;;25.13;;
53285;SDS011;39171;45.550;12.074;2022-12-18T21:55:59;29.90;;;24.77;;
53285;SDS011;39171;45.550;12.074;2022-12-18T22:02:02;31.15;;;25.48;;
53285;SDS011;39171;45.550;12.074;2022-12-18T22:08:09;30.75;;;24.00;;
53285;SDS011;39171;45.550;12.074;2022-12-18T22:14:11;30.38;;;23.88;;
53285;SDS011;39171;45.550;12.074;2022-12-18T22:20:14;29.27;;;23.75;;
53285;SDS011;39171;45.550;12.074;2022-12-18T22:26:19;27.25;;;22.65;;
53285;SDS011;39171;45.550;12.074;2022-12-18T22:32:21;28.13;;;22.40;;
53285;SDS011;39171;45.550;12.074;2022-12-18T22:38:23;28.85;;;22.35;;
53285;SDS011;39171;45.550;12.074;2022-12-18T22:44:24;29.20;;;22.73;;
53285;SDS011;39171;45.550;12.074;2022-12-18T22:50:26;27.75;;;22.23;;
53285;SDS011;39171;45.550;12.074;2022-12-18T22:56:28;26.17;;;21.80;;
53285;SDS011;39171;45.550;12.074;2022-12-18T23:02:32;22.83;;;19.92;;
53285;SDS011;39171;45.550;12.074;2022-12-18T23:08:33;23.80;;;19.85;;
53285;SDS011;39171;45.550;12.074;2022-12-18T23:14:35;24.10;;;19.00;;
53285;SDS011;39171;45.550;12.074;2022-12-18T23:20:37;22.38;;;18.73;;
53285;SDS011;39171;45.550;12.074;2022-12-18T23:26:38;19.95;;;17.02;;
53285;SDS011;39171;45.550;12.074;2022-12-18T23:32:40;24.40;;;18.17;;
53285;SDS011;39171;45.550;12.074;2022-12-18T23:38:41;22.63;;;16.92;;
53285;SDS011;39171;45.550;12.074;2022-12-18T23:44:47;21.48;;;17.77;;
53285;SDS011;39171;45.550;12.074;2022-12-18T23:50:48;19.58;;;16.17;;
53285;SDS011;39171;45.550;12.074;2022-12-18T23:56:50;19.35;;;16.15;;
